sensor_id;sensor_type;location;lat;lon;timestamp;P1;durP1;ratioP1;P2;durP2;ratioP2
9524;SDS011;15940;48.734;9.112;2022-09-03T00:00:21;4.73;;;1.70;;
9524;SDS011;15940;48.734;9.112;2022-09-03T00:02:51;3.23;;;1.83;;
9524;SDS011;15940;48.734;9.112;2022-09-03T00:05:31;3.57;;;1.60;;
9524;SDS011;15940;48.734;9.112;2022-09-03T00:08:06;1.70;;;1.60;;
9524;SDS011;15940;48.734;9.112;2022-09-03T00:10:42;1.93;;;1.47;;
9524;SDS011;15940;48.734;9.112;2022-09-03T00:13:16;3.33;;;1.90;;
9524;SDS011;15940;48.734;9.112;2022-09-03T00:15:49;1.70;;;1.60;;
9524;SDS011;15940;48.734;9.112;2022-09-03T00:18:19;5.90;;;1.77;;
9524;SDS011;15940;48.734;9.112;2022-09-03T00:20:51;1.70;;;1.60;;
9524;SDS011;15940;48.734;9.112;2022-09-03T00:23:24;2.20;;;1.70;;
9524;SDS011;15940;48.734;9.112;2022-09-03T00:25:58;2.47;;;1.50;;
9524;SDS011;15940;48.734;9.112;2022-09-03T00:28:33;2.27;;;1.80;;
9524;SDS011;15940;48.734;9.112;2022-09-03T00:31:08;2.70;;;1.80;;
9524;SDS011;15940;48.734;9.112;2022-09-03T00:33:42;1.83;;;1.50;;
9524;SDS011;15940;48.734;9.112;2022-09-03T00:36:15;2.33;;;1.63;;
9524;SDS011;15940;48.734;9.112;2022-09-03T00:38:45;2.17;;;1.50;;
9524;SDS011;15940;48.734;9.112;2022-09-03T00:41:16;3.47;;;1.50;;
9524;SDS011;15940;48.734;9.112;2022-09-03T00:44:02;4.77;;;2.13;;
9524;SDS011;15940;48.734;9.112;2022-09-03T00:46:59;2.90;;;1.50;;
9524;SDS011;15940;48.734;9.112;2022-09-03T00:49:39;1.87;;;1.67;;
9524;SDS011;15940;48.734;9.112;2022-09-03T00:52:21;2.80;;;1.60;;
9524;SDS011;15940;48.734;9.112;2022-09-03T00:55:06;1.90;;;1.40;;
9524;SDS011;15940;48.734;9.112;2022-09-03T00:57:44;1.80;;;1.70;;
9524;SDS011;15940;48.734;9.112;2022-09-03T01:00:27;1.70;;;1.60;;
9524;SDS011;15940;48.734;9.112;2022-09-03T01:03:05;1.80;;;1.50;;
9524;SDS011;15940;48.734;9.112;2022-09-03T01:05:39;1.70;;;1.60;;
9524;SDS011;15940;48.734;9.112;2022-09-03T01:08:29;2.37;;;1.60;;
9524;SDS011;15940;48.734;9.112;2022-09-03T01:11:12;5.17;;;1.77;;
9524;SDS011;15940;48.734;9.112;2022-09-03T01:13:52;3.90;;;1.87;;
9524;SDS011;15940;48.734;9.112;2022-09-03T01:16:30;3.30;;;1.73;;
9524;SDS011;15940;48.734;9.112;2022-09-03T01:19:11;1.70;;;1.60;;
9524;SDS011;15940;48.734;9.112;2022-09-03T01:22:06;1.63;;;1.53;;
9524;SDS011;15940;48.734;9.112;2022-09-03T01:25:08;2.00;;;1.77;;
9524;SDS011;15940;48.734;9.112;2022-09-03T01:27:46;4.13;;;1.60;;
9524;SDS011;15940;48.734;9.112;2022-09-03T01:30:59;1.80;;;1.70;;
9524;SDS011;15940;48.734;9.112;2022-09-03T01:33:36;2.63;;;1.53;;
9524;SDS011;15940;48.734;9.112;2022-09-03T01:36:10;2.77;;;1.50;;
9524;SDS011;15940;48.734;9.112;2022-09-03T01:38:46;1.60;;;1.50;;
9524;SDS011;15940;48.734;9.112;2022-09-03T01:41:24;1.93;;;1.50;;
9524;SDS011;15940;48.734;9.112;2022-09-03T01:44:22;1.90;;;1.70;;
9524;SDS011;15940;48.734;9.112;2022-09-03T01:47:04;1.93;;;1.70;;
9524;SDS011;15940;48.734;9.112;2022-09-03T01:49:45;1.80;;;1.70;;
9524;SDS011;15940;48.734;9.112;2022-09-03T01:52:24;1.60;;;1.50;;
9524;SDS011;15940;48.734;9.112;2022-09-03T01:55:11;3.07;;;1.47;;
9524;SDS011;15940;48.734;9.112;2022-09-03T01:57:52;1.63;;;1.53;;
9524;SDS011;15940;48.734;9.112;2022-09-03T02:00:25;2.50;;;1.53;;
9524;SDS011;15940;48.734;9.112;2022-09-03T02:02:59;2.40;;;1.70;;
9524;SDS011;15940;48.734;9.112;2022-09-03T02:05:31;2.97;;;1.80;;
9524;SDS011;15940;48.734;9.112;2022-09-03T02:07:59;3.97;;;1.70;;
9524;SDS011;15940;48.734;9.112;2022-09-03T02:10:31;3.90;;;1.70;;
9524;SDS011;15940;48.734;9.112;2022-09-03T02:13:05;2.50;;;1.70;;
9524;SDS011;15940;48.734;9.112;2022-09-03T02:15:37;4.10;;;1.70;;
9524;SDS011;15940;48.734;9.112;2022-09-03T02:18:10;1.83;;;1.60;;
9524;SDS011;15940;48.734;9.112;2022-09-03T02:20:42;3.20;;;1.60;;
9524;SDS011;15940;48.734;9.112;2022-09-03T02:23:11;3.27;;;1.90;;
9524;SDS011;15940;48.734;9.112;2022-09-03T02:25:40;1.60;;;1.50;;
9524;SDS011;15940;48.734;9.112;2022-09-03T02:28:11;4.00;;;1.60;;
9524;SDS011;15940;48.734;9.112;2022-09-03T02:30:41;1.50;;;1.40;;
9524;SDS011;15940;48.734;9.112;2022-09-03T02:33:08;2.10;;;1.83;;
9524;SDS011;15940;48.734;9.112;2022-09-03T02:35:35;2.53;;;1.67;;
9524;SDS011;15940;48.734;9.112;2022-09-03T02:38:09;4.83;;;1.63;;
9524;SDS011;15940;48.734;9.112;2022-09-03T02:40:38;1.73;;;1.63;;
9524;SDS011;15940;48.734;9.112;2022-09-03T02:43:06;1.83;;;1.73;;
9524;SDS011;15940;48.734;9.112;2022-09-03T02:45:36;2.40;;;1.70;;
9524;SDS011;15940;48.734;9.112;2022-09-03T02:48:10;1.87;;;1.60;;
9524;SDS011;15940;48.734;9.112;2022-09-03T02:50:39;1.70;;;1.60;;
9524;SDS011;15940;48.734;9.112;2022-09-03T02:53:06;1.90;;;1.80;;
9524;SDS011;15940;48.734;9.112;2022-09-03T02:55:34;3.43;;;1.77;;
9524;SDS011;15940;48.734;9.112;2022-09-03T02:58:01;2.60;;;1.47;;
9524;SDS011;15940;48.734;9.112;2022-09-03T03:00:31;3.13;;;1.70;;
9524;SDS011;15940;48.734;9.112;2022-09-03T03:03:01;5.07;;;1.80;;
9524;SDS011;15940;48.734;9.112;2022-09-03T03:05:29;5.27;;;2.17;;
9524;SDS011;15940;48.734;9.112;2022-09-03T03:08:10;4.10;;;1.83;;
9524;SDS011;15940;48.734;9.112;2022-09-03T03:10:39;2.77;;;2.00;;
9524;SDS011;15940;48.734;9.112;2022-09-03T03:13:06;5.90;;;2.17;;
9524;SDS011;15940;48.734;9.112;2022-09-03T03:15:33;1.83;;;1.73;;
9524;SDS011;15940;48.734;9.112;2022-09-03T03:18:01;5.07;;;2.10;;
9524;SDS011;15940;48.734;9.112;2022-09-03T03:20:28;1.70;;;1.60;;
9524;SDS011;15940;48.734;9.112;2022-09-03T03:22:55;1.87;;;1.77;;
9524;SDS011;15940;48.734;9.112;2022-09-03T03:25:22;7.17;;;2.13;;
9524;SDS011;15940;48.734;9.112;2022-09-03T03:27:49;2.27;;;2.17;;
9524;SDS011;15940;48.734;9.112;2022-09-03T03:30:17;2.93;;;2.10;;
9524;SDS011;15940;48.734;9.112;2022-09-03T03:32:44;3.53;;;2.20;;
9524;SDS011;15940;48.734;9.112;2022-09-03T03:35:13;2.57;;;2.03;;
9524;SDS011;15940;48.734;9.112;2022-09-03T03:37:40;2.20;;;2.00;;
9524;SDS011;15940;48.734;9.112;2022-09-03T03:40:07;6.20;;;2.30;;
9524;SDS011;15940;48.734;9.112;2022-09-03T03:42:35;2.03;;;1.93;;
9524;SDS011;15940;48.734;9.112;2022-09-03T03:45:03;2.37;;;2.13;;
9524;SDS011;15940;48.734;9.112;2022-09-03T03:47:31;2.90;;;2.03;;
9524;SDS011;15940;48.734;9.112;2022-09-03T03:49:59;2.20;;;2.00;;
9524;SDS011;15940;48.734;9.112;2022-09-03T03:52:27;3.30;;;2.20;;
9524;SDS011;15940;48.734;9.112;2022-09-03T03:54:54;3.07;;;2.07;;
9524;SDS011;15940;48.734;9.112;2022-09-03T03:57:21;2.10;;;2.00;;
9524;SDS011;15940;48.734;9.112;2022-09-03T03:59:49;6.43;;;2.30;;
9524;SDS011;15940;48.734;9.112;2022-09-03T04:02:16;2.20;;;2.00;;
9524;SDS011;15940;48.734;9.112;2022-09-03T04:04:43;2.07;;;1.97;;
9524;SDS011;15940;48.734;9.112;2022-09-03T04:07:10;3.03;;;2.03;;
9524;SDS011;15940;48.734;9.112;2022-09-03T04:09:38;3.80;;;2.30;;
9524;SDS011;15940;48.734;9.112;2022-09-03T04:12:05;2.23;;;2.00;;
9524;SDS011;15940;48.734;9.112;2022-09-03T04:14:33;2.87;;;2.03;;
9524;SDS011;15940;48.734;9.112;2022-09-03T04:17:00;2.20;;;2.10;;
9524;SDS011;15940;48.734;9.112;2022-09-03T04:19:27;2.10;;;2.00;;
9524;SDS011;15940;48.734;9.112;2022-09-03T04:21:54;2.20;;;2.10;;
9524;SDS011;15940;48.734;9.112;2022-09-03T04:24:21;2.73;;;2.10;;
9524;SDS011;15940;48.734;9.112;2022-09-03T04:26:49;2.60;;;2.40;;
9524;SDS011;15940;48.734;9.112;2022-09-03T04:29:18;2.60;;;2.13;;
9524;SDS011;15940;48.734;9.112;2022-09-03T04:31:46;4.40;;;2.10;;
9524;SDS011;15940;48.734;9.112;2022-09-03T04:34:27;2.10;;;2.00;;
9524;SDS011;15940;48.734;9.112;2022-09-03T04:36:53;2.47;;;2.27;;
9524;SDS011;15940;48.734;9.112;2022-09-03T04:39:21;5.03;;;2.33;;
9524;SDS011;15940;48.734;9.112;2022-09-03T04:41:50;2.13;;;2.00;;
9524;SDS011;15940;48.734;9.112;2022-09-03T04:44:17;2.23;;;2.13;;
9524;SDS011;15940;48.734;9.112;2022-09-03T04:46:43;2.53;;;2.17;;
9524;SDS011;15940;48.734;9.112;2022-09-03T04:49:11;2.30;;;2.10;;
9524;SDS011;15940;48.734;9.112;2022-09-03T04:51:39;3.70;;;2.30;;
9524;SDS011;15940;48.734;9.112;2022-09-03T04:54:06;2.63;;;2.00;;
9524;SDS011;15940;48.734;9.112;2022-09-03T04:56:34;2.50;;;2.30;;
9524;SDS011;15940;48.734;9.112;2022-09-03T04:59:03;2.77;;;2.50;;
9524;SDS011;15940;48.734;9.112;2022-09-03T05:01:33;4.73;;;2.23;;
9524;SDS011;15940;48.734;9.112;2022-09-03T05:04:01;3.43;;;2.37;;
9524;SDS011;15940;48.734;9.112;2022-09-03T05:06:30;2.20;;;2.10;;
9524;SDS011;15940;48.734;9.112;2022-09-03T05:08:58;2.13;;;2.03;;
9524;SDS011;15940;48.734;9.112;2022-09-03T05:11:26;3.77;;;2.20;;
9524;SDS011;15940;48.734;9.112;2022-09-03T05:13:54;3.53;;;2.37;;
9524;SDS011;15940;48.734;9.112;2022-09-03T05:16:25;2.90;;;2.10;;
9524;SDS011;15940;48.734;9.112;2022-09-03T05:18:54;3.80;;;2.30;;
9524;SDS011;15940;48.734;9.112;2022-09-03T05:21:25;7.13;;;2.50;;
9524;SDS011;15940;48.734;9.112;2022-09-03T05:23:53;5.97;;;2.57;;
9524;SDS011;15940;48.734;9.112;2022-09-03T05:26:22;3.03;;;2.60;;
9524;SDS011;15940;48.734;9.112;2022-09-03T05:28:52;2.60;;;2.40;;
9524;SDS011;15940;48.734;9.112;2022-09-03T05:31:21;2.53;;;2.33;;
9524;SDS011;15940;48.734;9.112;2022-09-03T05:33:52;2.83;;;2.50;;
9524;SDS011;15940;48.734;9.112;2022-09-03T05:36:23;6.30;;;2.87;;
9524;SDS011;15940;48.734;9.112;2022-09-03T05:38:51;4.93;;;2.80;;
9524;SDS011;15940;48.734;9.112;2022-09-03T05:41:19;3.90;;;2.60;;
9524;SDS011;15940;48.734;9.112;2022-09-03T05:43:48;3.03;;;2.73;;
9524;SDS011;15940;48.734;9.112;2022-09-03T05:46:20;3.27;;;2.77;;
9524;SDS011;15940;48.734;9.112;2022-09-03T05:48:52;4.07;;;2.50;;
9524;SDS011;15940;48.734;9.112;2022-09-03T05:51:19;2.50;;;2.30;;
9524;SDS011;15940;48.734;9.112;2022-09-03T05:53:47;3.13;;;2.40;;
9524;SDS011;15940;48.734;9.112;2022-09-03T05:56:15;3.53;;;2.73;;
9524;SDS011;15940;48.734;9.112;2022-09-03T05:58:44;5.23;;;2.70;;
9524;SDS011;15940;48.734;9.112;2022-09-03T06:01:13;4.93;;;2.60;;
9524;SDS011;15940;48.734;9.112;2022-09-03T06:03:42;2.80;;;2.50;;
9524;SDS011;15940;48.734;9.112;2022-09-03T06:06:12;2.70;;;2.50;;
9524;SDS011;15940;48.734;9.112;2022-09-03T06:08:40;7.20;;;2.97;;
9524;SDS011;15940;48.734;9.112;2022-09-03T06:11:09;3.57;;;2.43;;
9524;SDS011;15940;48.734;9.112;2022-09-03T06:13:36;4.07;;;2.50;;
9524;SDS011;15940;48.734;9.112;2022-09-03T06:16:04;3.87;;;2.60;;
9524;SDS011;15940;48.734;9.112;2022-09-03T06:18:33;2.80;;;2.60;;
9524;SDS011;15940;48.734;9.112;2022-09-03T06:21:00;3.13;;;2.90;;
9524;SDS011;15940;48.734;9.112;2022-09-03T06:23:30;3.03;;;2.83;;
9524;SDS011;15940;48.734;9.112;2022-09-03T06:25:59;3.07;;;2.80;;
9524;SDS011;15940;48.734;9.112;2022-09-03T06:28:27;3.30;;;3.10;;
9524;SDS011;15940;48.734;9.112;2022-09-03T06:30:56;2.90;;;2.70;;
9524;SDS011;15940;48.734;9.112;2022-09-03T06:33:24;3.43;;;3.07;;
9524;SDS011;15940;48.734;9.112;2022-09-03T06:35:51;2.90;;;2.70;;
9524;SDS011;15940;48.734;9.112;2022-09-03T06:38:22;3.63;;;3.33;;
9524;SDS011;15940;48.734;9.112;2022-09-03T06:40:54;3.57;;;3.27;;
9524;SDS011;15940;48.734;9.112;2022-09-03T06:43:25;3.53;;;3.07;;
9524;SDS011;15940;48.734;9.112;2022-09-03T06:45:54;4.07;;;3.37;;
9524;SDS011;15940;48.734;9.112;2022-09-03T06:48:22;4.90;;;3.20;;
9524;SDS011;15940;48.734;9.112;2022-09-03T06:50:53;2.83;;;2.63;;
9524;SDS011;15940;48.734;9.112;2022-09-03T06:53:22;5.53;;;3.10;;
9524;SDS011;15940;48.734;9.112;2022-09-03T06:55:55;5.47;;;2.90;;
9524;SDS011;15940;48.734;9.112;2022-09-03T06:58:24;2.73;;;2.53;;
9524;SDS011;15940;48.734;9.112;2022-09-03T07:00:59;2.80;;;2.60;;
9524;SDS011;15940;48.734;9.112;2022-09-03T07:03:28;4.17;;;2.63;;
9524;SDS011;15940;48.734;9.112;2022-09-03T07:05:59;4.80;;;2.90;;
9524;SDS011;15940;48.734;9.112;2022-09-03T07:08:26;3.00;;;2.80;;
9524;SDS011;15940;48.734;9.112;2022-09-03T07:10:55;3.03;;;2.63;;
9524;SDS011;15940;48.734;9.112;2022-09-03T07:13:22;2.80;;;2.60;;
9524;SDS011;15940;48.734;9.112;2022-09-03T07:15:56;3.03;;;2.37;;
9524;SDS011;15940;48.734;9.112;2022-09-03T07:18:25;3.10;;;2.90;;
9524;SDS011;15940;48.734;9.112;2022-09-03T07:20:56;3.00;;;2.77;;
9524;SDS011;15940;48.734;9.112;2022-09-03T07:23:25;6.27;;;2.93;;
9524;SDS011;15940;48.734;9.112;2022-09-03T07:25:53;3.20;;;3.00;;
9524;SDS011;15940;48.734;9.112;2022-09-03T07:28:23;5.67;;;3.00;;
9524;SDS011;15940;48.734;9.112;2022-09-03T07:30:50;3.13;;;2.83;;
9524;SDS011;15940;48.734;9.112;2022-09-03T07:33:18;3.33;;;3.03;;
9524;SDS011;15940;48.734;9.112;2022-09-03T07:35:45;3.00;;;2.70;;
9524;SDS011;15940;48.734;9.112;2022-09-03T07:38:15;4.70;;;2.87;;
9524;SDS011;15940;48.734;9.112;2022-09-03T07:40:44;3.33;;;2.87;;
9524;SDS011;15940;48.734;9.112;2022-09-03T07:43:13;4.93;;;3.43;;
9524;SDS011;15940;48.734;9.112;2022-09-03T07:45:40;3.30;;;3.00;;
9524;SDS011;15940;48.734;9.112;2022-09-03T07:48:08;3.10;;;2.90;;
9524;SDS011;15940;48.734;9.112;2022-09-03T07:50:34;5.30;;;3.20;;
9524;SDS011;15940;48.734;9.112;2022-09-03T07:53:04;2.97;;;2.77;;
9524;SDS011;15940;48.734;9.112;2022-09-03T07:55:32;3.50;;;2.77;;
9524;SDS011;15940;48.734;9.112;2022-09-03T07:57:59;3.87;;;2.87;;
9524;SDS011;15940;48.734;9.112;2022-09-03T08:00:27;3.17;;;2.87;;
9524;SDS011;15940;48.734;9.112;2022-09-03T08:02:57;4.13;;;2.90;;
9524;SDS011;15940;48.734;9.112;2022-09-03T08:05:30;4.30;;;3.10;;
9524;SDS011;15940;48.734;9.112;2022-09-03T08:07:58;3.47;;;2.90;;
9524;SDS011;15940;48.734;9.112;2022-09-03T08:10:25;3.97;;;3.10;;
9524;SDS011;15940;48.734;9.112;2022-09-03T08:12:54;3.87;;;2.73;;
9524;SDS011;15940;48.734;9.112;2022-09-03T08:15:21;3.47;;;3.00;;
9524;SDS011;15940;48.734;9.112;2022-09-03T08:17:50;2.80;;;2.60;;
9524;SDS011;15940;48.734;9.112;2022-09-03T08:20:17;3.00;;;2.80;;
9524;SDS011;15940;48.734;9.112;2022-09-03T08:22:44;2.80;;;2.60;;
9524;SDS011;15940;48.734;9.112;2022-09-03T08:25:11;2.47;;;2.37;;
9524;SDS011;15940;48.734;9.112;2022-09-03T08:27:38;4.67;;;2.60;;
9524;SDS011;15940;48.734;9.112;2022-09-03T08:30:05;2.50;;;2.30;;
9524;SDS011;15940;48.734;9.112;2022-09-03T08:32:35;2.70;;;2.33;;
9524;SDS011;15940;48.734;9.112;2022-09-03T08:35:05;2.40;;;2.30;;
9524;SDS011;15940;48.734;9.112;2022-09-03T08:37:33;2.70;;;2.20;;
9524;SDS011;15940;48.734;9.112;2022-09-03T08:40:01;2.30;;;2.20;;
9524;SDS011;15940;48.734;9.112;2022-09-03T08:42:32;2.40;;;2.20;;
9524;SDS011;15940;48.734;9.112;2022-09-03T08:45:14;3.73;;;2.20;;
9524;SDS011;15940;48.734;9.112;2022-09-03T08:47:44;3.83;;;2.60;;
9524;SDS011;15940;48.734;9.112;2022-09-03T08:50:19;2.73;;;2.50;;
9524;SDS011;15940;48.734;9.112;2022-09-03T08:52:52;2.37;;;2.23;;
9524;SDS011;15940;48.734;9.112;2022-09-03T08:55:25;2.37;;;2.17;;
9524;SDS011;15940;48.734;9.112;2022-09-03T08:57:55;3.53;;;2.10;;
9524;SDS011;15940;48.734;9.112;2022-09-03T09:00:34;2.23;;;2.13;;
9524;SDS011;15940;48.734;9.112;2022-09-03T09:03:21;3.50;;;2.33;;
9524;SDS011;15940;48.734;9.112;2022-09-03T09:06:11;2.33;;;2.10;;
9524;SDS011;15940;48.734;9.112;2022-09-03T09:08:47;2.47;;;2.17;;
9524;SDS011;15940;48.734;9.112;2022-09-03T09:11:31;2.20;;;2.10;;
9524;SDS011;15940;48.734;9.112;2022-09-03T09:14:13;4.60;;;2.40;;
9524;SDS011;15940;48.734;9.112;2022-09-03T09:16:50;3.10;;;2.50;;
9524;SDS011;15940;48.734;9.112;2022-09-03T09:19:30;4.00;;;2.47;;
9524;SDS011;15940;48.734;9.112;2022-09-03T09:22:09;2.73;;;2.23;;
9524;SDS011;15940;48.734;9.112;2022-09-03T09:24:41;2.80;;;2.40;;
9524;SDS011;15940;48.734;9.112;2022-09-03T09:27:12;2.40;;;2.20;;
9524;SDS011;15940;48.734;9.112;2022-09-03T09:29:42;2.67;;;2.47;;
9524;SDS011;15940;48.734;9.112;2022-09-03T09:32:15;2.83;;;2.63;;
9524;SDS011;15940;48.734;9.112;2022-09-03T09:34:44;3.07;;;2.77;;
9524;SDS011;15940;48.734;9.112;2022-09-03T09:37:13;4.23;;;2.20;;
9524;SDS011;15940;48.734;9.112;2022-09-03T09:39:52;2.80;;;2.23;;
9524;SDS011;15940;48.734;9.112;2022-09-03T09:42:22;2.43;;;2.23;;
9524;SDS011;15940;48.734;9.112;2022-09-03T09:44:49;2.43;;;2.30;;
9524;SDS011;15940;48.734;9.112;2022-09-03T09:47:20;4.57;;;2.50;;
9524;SDS011;15940;48.734;9.112;2022-09-03T09:49:51;2.53;;;2.33;;
9524;SDS011;15940;48.734;9.112;2022-09-03T09:52:22;2.67;;;2.47;;
9524;SDS011;15940;48.734;9.112;2022-09-03T09:54:50;2.50;;;2.30;;
9524;SDS011;15940;48.734;9.112;2022-09-03T09:57:31;2.67;;;2.47;;
9524;SDS011;15940;48.734;9.112;2022-09-03T10:00:03;4.03;;;2.17;;
9524;SDS011;15940;48.734;9.112;2022-09-03T10:02:34;4.83;;;2.73;;
9524;SDS011;15940;48.734;9.112;2022-09-03T10:05:11;2.80;;;2.13;;
9524;SDS011;15940;48.734;9.112;2022-09-03T10:07:42;3.73;;;2.50;;
9524;SDS011;15940;48.734;9.112;2022-09-03T10:10:20;2.73;;;2.57;;
9524;SDS011;15940;48.734;9.112;2022-09-03T10:12:50;3.67;;;2.40;;
9524;SDS011;15940;48.734;9.112;2022-09-03T10:15:27;3.67;;;2.70;;
9524;SDS011;15940;48.734;9.112;2022-09-03T10:18:02;3.70;;;2.63;;
9524;SDS011;15940;48.734;9.112;2022-09-03T10:20:41;3.10;;;2.80;;
9524;SDS011;15940;48.734;9.112;2022-09-03T10:23:19;5.03;;;2.70;;
9524;SDS011;15940;48.734;9.112;2022-09-03T10:25:53;2.63;;;2.43;;
9524;SDS011;15940;48.734;9.112;2022-09-03T10:28:31;3.90;;;2.80;;
9524;SDS011;15940;48.734;9.112;2022-09-03T10:31:12;2.70;;;2.47;;
9524;SDS011;15940;48.734;9.112;2022-09-03T10:33:57;4.10;;;2.73;;
9524;SDS011;15940;48.734;9.112;2022-09-03T10:36:30;2.80;;;2.60;;
9524;SDS011;15940;48.734;9.112;2022-09-03T10:39:08;3.87;;;2.70;;
9524;SDS011;15940;48.734;9.112;2022-09-03T10:41:47;7.40;;;3.00;;
9524;SDS011;15940;48.734;9.112;2022-09-03T10:44:34;3.37;;;2.90;;
9524;SDS011;15940;48.734;9.112;2022-09-03T10:47:31;2.53;;;2.30;;
9524;SDS011;15940;48.734;9.112;2022-09-03T10:50:16;10.27;;;3.03;;
9524;SDS011;15940;48.734;9.112;2022-09-03T10:52:56;5.07;;;2.70;;
9524;SDS011;15940;48.734;9.112;2022-09-03T10:55:40;3.53;;;2.53;;
9524;SDS011;15940;48.734;9.112;2022-09-03T10:58:21;3.00;;;2.80;;
9524;SDS011;15940;48.734;9.112;2022-09-03T11:01:08;4.70;;;2.70;;
9524;SDS011;15940;48.734;9.112;2022-09-03T11:03:43;3.60;;;3.30;;
9524;SDS011;15940;48.734;9.112;2022-09-03T11:06:14;3.00;;;2.70;;
9524;SDS011;15940;48.734;9.112;2022-09-03T11:08:50;5.23;;;2.53;;
9524;SDS011;15940;48.734;9.112;2022-09-03T11:11:27;3.03;;;2.83;;
9524;SDS011;15940;48.734;9.112;2022-09-03T11:14:01;3.23;;;2.87;;
9524;SDS011;15940;48.734;9.112;2022-09-03T11:16:34;3.20;;;2.90;;
9524;SDS011;15940;48.734;9.112;2022-09-03T11:19:06;4.00;;;3.17;;
9524;SDS011;15940;48.734;9.112;2022-09-03T11:21:36;6.37;;;3.40;;
9524;SDS011;15940;48.734;9.112;2022-09-03T11:24:07;3.30;;;3.00;;
9524;SDS011;15940;48.734;9.112;2022-09-03T11:26:40;3.43;;;3.00;;
9524;SDS011;15940;48.734;9.112;2022-09-03T11:29:11;5.30;;;3.70;;
9524;SDS011;15940;48.734;9.112;2022-09-03T11:31:49;5.13;;;3.40;;
9524;SDS011;15940;48.734;9.112;2022-09-03T11:34:28;3.73;;;3.37;;
9524;SDS011;15940;48.734;9.112;2022-09-03T11:37:04;3.70;;;3.43;;
9524;SDS011;15940;48.734;9.112;2022-09-03T11:39:58;4.57;;;3.30;;
9524;SDS011;15940;48.734;9.112;2022-09-03T11:42:33;4.60;;;3.07;;
9524;SDS011;15940;48.734;9.112;2022-09-03T11:45:13;3.70;;;3.40;;
9524;SDS011;15940;48.734;9.112;2022-09-03T11:47:49;3.47;;;3.23;;
9524;SDS011;15940;48.734;9.112;2022-09-03T11:50:19;6.07;;;3.17;;
9524;SDS011;15940;48.734;9.112;2022-09-03T11:52:49;3.47;;;3.17;;
9524;SDS011;15940;48.734;9.112;2022-09-03T11:55:32;4.53;;;3.20;;
9524;SDS011;15940;48.734;9.112;2022-09-03T11:58:21;5.27;;;3.50;;
9524;SDS011;15940;48.734;9.112;2022-09-03T12:00:51;5.57;;;3.43;;
9524;SDS011;15940;48.734;9.112;2022-09-03T12:03:22;4.57;;;3.77;;
9524;SDS011;15940;48.734;9.112;2022-09-03T12:06:00;4.30;;;3.90;;
9524;SDS011;15940;48.734;9.112;2022-09-03T12:09:00;5.20;;;4.00;;
9524;SDS011;15940;48.734;9.112;2022-09-03T12:12:07;5.03;;;3.47;;
9524;SDS011;15940;48.734;9.112;2022-09-03T12:14:55;4.43;;;4.03;;
9524;SDS011;15940;48.734;9.112;2022-09-03T12:17:29;4.30;;;3.77;;
9524;SDS011;15940;48.734;9.112;2022-09-03T12:20:09;4.77;;;3.90;;
9524;SDS011;15940;48.734;9.112;2022-09-03T12:22:38;5.23;;;3.43;;
9524;SDS011;15940;48.734;9.112;2022-09-03T12:25:06;15.57;;;3.77;;
9524;SDS011;15940;48.734;9.112;2022-09-03T12:27:35;3.20;;;2.50;;
9524;SDS011;15940;48.734;9.112;2022-09-03T12:30:04;3.00;;;2.80;;
9524;SDS011;15940;48.734;9.112;2022-09-03T12:32:42;4.80;;;2.70;;
9524;SDS011;15940;48.734;9.112;2022-09-03T12:35:12;3.60;;;2.50;;
9524;SDS011;15940;48.734;9.112;2022-09-03T12:37:42;2.43;;;2.20;;
9524;SDS011;15940;48.734;9.112;2022-09-03T12:40:17;2.97;;;2.23;;
9524;SDS011;15940;48.734;9.112;2022-09-03T12:42:47;4.57;;;2.50;;
9524;SDS011;15940;48.734;9.112;2022-09-03T12:45:17;2.50;;;2.30;;
9524;SDS011;15940;48.734;9.112;2022-09-03T12:47:45;2.93;;;2.10;;
9524;SDS011;15940;48.734;9.112;2022-09-03T12:50:13;2.60;;;2.20;;
9524;SDS011;15940;48.734;9.112;2022-09-03T12:52:43;4.07;;;2.40;;
9524;SDS011;15940;48.734;9.112;2022-09-03T12:55:18;2.70;;;2.50;;
9524;SDS011;15940;48.734;9.112;2022-09-03T12:57:55;3.30;;;2.50;;
9524;SDS011;15940;48.734;9.112;2022-09-03T13:00:32;4.93;;;2.90;;
9524;SDS011;15940;48.734;9.112;2022-09-03T13:03:03;5.23;;;2.50;;
9524;SDS011;15940;48.734;9.112;2022-09-03T13:05:34;4.20;;;2.90;;
9524;SDS011;15940;48.734;9.112;2022-09-03T13:08:08;4.13;;;2.50;;
9524;SDS011;15940;48.734;9.112;2022-09-03T13:10:40;6.80;;;2.27;;
9524;SDS011;15940;48.734;9.112;2022-09-03T13:13:16;2.77;;;2.07;;
9524;SDS011;15940;48.734;9.112;2022-09-03T13:15:59;4.17;;;2.60;;
9524;SDS011;15940;48.734;9.112;2022-09-03T13:19:07;4.60;;;2.27;;
9524;SDS011;15940;48.734;9.112;2022-09-03T13:21:43;3.40;;;2.10;;
9524;SDS011;15940;48.734;9.112;2022-09-03T13:24:22;2.20;;;1.83;;
9524;SDS011;15940;48.734;9.112;2022-09-03T13:27:07;2.00;;;1.90;;
9524;SDS011;15940;48.734;9.112;2022-09-03T13:32:38;2.30;;;2.10;;
9524;SDS011;15940;48.734;9.112;2022-09-03T13:35:18;2.60;;;2.33;;
9524;SDS011;15940;48.734;9.112;2022-09-03T13:37:55;3.83;;;1.90;;
9524;SDS011;15940;48.734;9.112;2022-09-03T13:40:32;2.80;;;1.63;;
9524;SDS011;15940;48.734;9.112;2022-09-03T13:43:08;1.87;;;1.73;;
9524;SDS011;15940;48.734;9.112;2022-09-03T13:45:49;2.00;;;1.70;;
9524;SDS011;15940;48.734;9.112;2022-09-03T13:48:23;2.57;;;1.80;;
9524;SDS011;15940;48.734;9.112;2022-09-03T13:51:16;1.63;;;1.53;;
9524;SDS011;15940;48.734;9.112;2022-09-03T13:53:52;3.37;;;1.70;;
9524;SDS011;15940;48.734;9.112;2022-09-03T13:56:41;1.80;;;1.70;;
9524;SDS011;15940;48.734;9.112;2022-09-03T13:59:18;2.97;;;1.80;;
9524;SDS011;15940;48.734;9.112;2022-09-03T14:01:57;3.07;;;1.93;;
9524;SDS011;15940;48.734;9.112;2022-09-03T14:04:46;1.63;;;1.40;;
9524;SDS011;15940;48.734;9.112;2022-09-03T14:07:27;3.37;;;1.80;;
9524;SDS011;15940;48.734;9.112;2022-09-03T14:10:15;1.80;;;1.70;;
9524;SDS011;15940;48.734;9.112;2022-09-03T14:12:50;2.07;;;1.87;;
9524;SDS011;15940;48.734;9.112;2022-09-03T14:15:31;1.40;;;1.40;;
9524;SDS011;15940;48.734;9.112;2022-09-03T14:18:09;1.60;;;1.50;;
9524;SDS011;15940;48.734;9.112;2022-09-03T14:20:45;2.83;;;1.77;;
9524;SDS011;15940;48.734;9.112;2022-09-03T14:23:23;2.60;;;1.50;;
9524;SDS011;15940;48.734;9.112;2022-09-03T14:26:02;2.23;;;2.00;;
9524;SDS011;15940;48.734;9.112;2022-09-03T14:28:33;1.53;;;1.40;;
9524;SDS011;15940;48.734;9.112;2022-09-03T14:31:06;2.47;;;2.00;;
9524;SDS011;15940;48.734;9.112;2022-09-03T14:33:43;1.60;;;1.50;;
9524;SDS011;15940;48.734;9.112;2022-09-03T14:36:27;2.07;;;1.57;;
9524;SDS011;15940;48.734;9.112;2022-09-03T14:39:24;2.07;;;1.70;;
9524;SDS011;15940;48.734;9.112;2022-09-03T14:42:07;1.63;;;1.47;;
9524;SDS011;15940;48.734;9.112;2022-09-03T14:45:01;1.60;;;1.50;;
9524;SDS011;15940;48.734;9.112;2022-09-03T14:47:53;1.50;;;1.40;;
9524;SDS011;15940;48.734;9.112;2022-09-03T14:50:43;1.80;;;1.70;;
9524;SDS011;15940;48.734;9.112;2022-09-03T14:53:34;1.70;;;1.60;;
9524;SDS011;15940;48.734;9.112;2022-09-03T14:56:32;2.13;;;1.53;;
9524;SDS011;15940;48.734;9.112;2022-09-03T15:02:21;1.93;;;1.60;;
9524;SDS011;15940;48.734;9.112;2022-09-03T15:05:27;1.77;;;1.67;;
9524;SDS011;15940;48.734;9.112;2022-09-03T15:08:18;1.30;;;1.30;;
9524;SDS011;15940;48.734;9.112;2022-09-03T15:11:09;2.10;;;1.40;;
9524;SDS011;15940;48.734;9.112;2022-09-03T15:13:44;1.67;;;1.57;;
9524;SDS011;15940;48.734;9.112;2022-09-03T15:16:19;1.57;;;1.50;;
9524;SDS011;15940;48.734;9.112;2022-09-03T15:19:15;2.00;;;1.67;;
9524;SDS011;15940;48.734;9.112;2022-09-03T15:22:11;1.60;;;1.50;;
9524;SDS011;15940;48.734;9.112;2022-09-03T15:24:55;1.60;;;1.50;;
9524;SDS011;15940;48.734;9.112;2022-09-03T15:27:37;1.60;;;1.50;;
9524;SDS011;15940;48.734;9.112;2022-09-03T15:30:22;1.63;;;1.50;;
9524;SDS011;15940;48.734;9.112;2022-09-03T15:32:55;1.40;;;1.30;;
9524;SDS011;15940;48.734;9.112;2022-09-03T15:35:37;1.70;;;1.60;;
9524;SDS011;15940;48.734;9.112;2022-09-03T15:38:24;3.77;;;1.70;;
9524;SDS011;15940;48.734;9.112;2022-09-03T15:41:08;1.63;;;1.53;;
9524;SDS011;15940;48.734;9.112;2022-09-03T15:43:45;2.70;;;1.57;;
9524;SDS011;15940;48.734;9.112;2022-09-03T15:46:28;1.80;;;1.70;;
9524;SDS011;15940;48.734;9.112;2022-09-03T15:49:20;4.27;;;1.50;;